메인 페이지
METAR-TAF:

METAR-TAF

공항 :

오산, 대한민국

오산공군기지

위도: 37-06N, 경도: 127-02E, 고도: 11m

현재 날씨관측

예보는 34분 전, 10:55시(UTC)에 발표되었습니다.
서남서4kt
온도 1°C
습도 44%
기압 1023 hPa
시정: 11.3km
고도 20000ft 상공 구름 많음

METAR: RKSO 201055Z 25004KT 7SM BKN200 01/M10 A3021 RMK AO2A SLP234 $

시각: 20:29 (11:29 UTC)

예보

예보는 29분 전, 11:00시(UTC)에 발표되었습니다.
예보 대상 시간: 20일 11시부터 21일 17시까지 (UTC)
북북서10kt, 순간 최대 풍속 15kt
시정: 2101m
고도 20000ft 상공 구름 많음
일시적
20일 17시부터 20일 23시까지 (UTC)
시정: 9000m
박무

TAF: RKSO 201100Z 2011/2117 30006KT 9999 BKN200 QNH3019INS WND 34010G15KT AFT 2101 TEMPO 2017/2023 9000 BR TX04/2106Z TNM05/2021Z

4,000개 이상의 공항 관측 자료 및 예보 (METAR 및 TAF 보고).

지도상에서 검색 가능한 기상관측소가 노란 점과 빨간 점으로 표시되어 있습니다.

기상관측소 명을 보려면 표시 위로 마우스를 이동하세요.

날씨 관측과 예보를 보려면 클릭하세요.

지도 변경 : 확대하려면 엑스 표시가 있는 녹색 버튼, 축소하려면 빼기 표시가 있는 녹색 버튼, 다음 페이지의 지도를 보려면 녹색 화살표를 클릭하세요.


METAR-TAF: